Time;durP1;ratioP1;P1;durP2;ratioP2;P2;SDS_P1;SDS_P2;PMS_P1;PMS_P2;Temp;Humidity;BMP_temperature;BMP_pressure;BME280_temperature;BME280_humidity;BME280_pressure;Samples;Min_cycle;Max_cycle;Signal;HPM_P1;HPM_P2
2023/07/26 00:00:34;;;;;;;12.82;7.95;;;12.90;99.90;;;;;;5056226;28;20197;-77
2023/07/26 00:03:05;;;;;;;11.68;8.00;;;13.00;99.90;;;;;;5056410;28;20662;-77
2023/07/26 00:05:35;;;;;;;12.10;7.88;;;13.10;99.90;;;;;;5055196;28;20312;-77
2023/07/26 00:08:06;;;;;;;10.25;7.57;;;13.20;99.90;;;;;;5055073;28;20262;-77
2023/07/26 00:10:39;;;;;;;10.50;7.53;;;13.30;99.90;;;;;;5068027;28;20199;-77
2023/07/26 00:13:10;;;;;;;10.32;6.40;;;13.40;99.90;;;;;;5059050;28;20559;-77
2023/07/26 00:15:41;;;;;;;9.30;5.75;;;13.50;99.90;;;;;;5055149;28;20572;-77
2023/07/26 00:18:12;;;;;;;8.02;5.30;;;13.60;99.90;;;;;;5062495;28;20201;-77
2023/07/26 00:20:42;;;;;;;11.90;5.65;;;13.80;99.90;;;;;;5070736;28;20197;-77
2023/07/26 00:23:13;;;;;;;16.60;6.68;;;13.80;99.90;;;;;;5063160;28;20533;-78
2023/07/26 00:25:46;;;;;;;7.88;6.18;;;13.90;99.90;;;;;;5066543;28;20214;-78
2023/07/26 00:28:17;;;;;;;9.27;5.85;;;14.00;99.90;;;;;;5052583;28;20205;-77
2023/07/26 00:30:49;;;;;;;10.07;6.30;;;14.10;99.90;;;;;;5061483;28;20656;-80
2023/07/26 00:33:19;;;;;;;9.43;6.00;;;14.20;99.90;;;;;;5062351;28;20231;-79
2023/07/26 00:35:50;;;;;;;8.07;6.00;;;14.40;99.90;;;;;;5058286;28;20205;-78
2023/07/26 00:38:21;;;;;;;7.18;5.35;;;14.40;99.90;;;;;;5063179;28;20751;-77
2023/07/26 00:40:54;;;;;;;9.05;5.30;;;14.50;99.90;;;;;;5057456;28;20284;-76
2023/07/26 00:43:25;;;;;;;9.43;6.13;;;14.70;99.90;;;;;;5063962;28;20202;-75
2023/07/26 00:45:56;;;;;;;9.77;5.72;;;14.80;99.90;;;;;;5071953;28;20223;-77
2023/07/26 00:48:29;;;;;;;9.20;5.05;;;14.80;99.90;;;;;;5065710;28;20552;-78
2023/07/26 00:51:02;;;;;;;7.72;5.20;;;15.00;99.90;;;;;;5054666;28;20221;-78
2023/07/26 00:53:33;;;;;;;8.32;5.00;;;15.10;99.90;;;;;;5054972;28;20205;-75
2023/07/26 00:56:06;;;;;;;10.23;5.70;;;15.30;99.90;;;;;;5077268;28;20196;-78
2023/07/26 00:58:38;;;;;;;8.98;4.90;;;15.40;99.90;;;;;;5057096;28;20218;-79
2023/07/26 01:01:08;;;;;;;8.57;5.88;;;15.50;99.90;;;;;;5054076;28;20251;-79
2023/07/26 01:03:39;;;;;;;9.82;5.57;;;15.60;99.90;;;;;;5054820;28;20197;-80
2023/07/26 01:06:23;;;;;;;8.20;5.40;;;15.70;99.90;;;;;;5053763;28;20308;-79
2023/07/26 01:09:14;;;;;;;9.25;5.72;;;15.90;99.90;;;;;;5053404;28;20229;-77
2023/07/26 01:11:56;;;;;;;8.52;5.22;;;16.00;99.90;;;;;;5054039;28;20193;-79
2023/07/26 01:14:32;;;;;;;9.90;5.68;;;16.10;99.90;;;;;;5074315;28;20209;-78
2023/07/26 01:17:04;;;;;;;7.63;4.68;;;16.20;99.90;;;;;;5071940;28;20207;-79
2023/07/26 01:19:35;;;;;;;10.73;5.20;;;16.30;99.90;;;;;;5054162;28;20537;-77
2023/07/26 01:22:08;;;;;;;8.75;5.10;;;16.40;99.90;;;;;;5062837;28;20197;-79
2023/07/26 01:24:39;;;;;;;7.88;4.50;;;16.50;99.90;;;;;;5056081;28;20194;-78
2023/07/26 01:27:12;;;;;;;6.63;4.13;;;16.60;99.90;;;;;;5053684;28;20631;-80
2023/07/26 01:29:43;;;;;;;9.40;4.22;;;16.70;99.90;;;;;;5070208;28;20194;-78
2023/07/26 01:32:16;;;;;;;5.80;4.28;;;16.80;99.90;;;;;;5056561;28;20201;-76
2023/07/26 01:34:47;;;;;;;5.97;4.22;;;16.90;99.90;;;;;;5056806;28;20518;-76
2023/07/26 01:37:21;;;;;;;5.18;3.78;;;17.00;99.90;;;;;;5059691;28;20225;-78
2023/07/26 01:39:54;;;;;;;5.65;3.53;;;17.10;99.90;;;;;;5051240;28;20233;-79
2023/07/26 01:42:25;;;;;;;6.32;3.50;;;17.20;99.90;;;;;;5060396;28;20200;-78
2023/07/26 01:44:55;;;;;;;6.38;3.38;;;17.30;99.90;;;;;;5052399;28;20223;-76
2023/07/26 01:47:26;;;;;;;5.25;3.50;;;17.50;99.90;;;;;;5051758;28;20196;-79
2023/07/26 01:49:57;;;;;;;6.90;3.40;;;17.60;99.90;;;;;;5053773;28;20194;-76
2023/07/26 01:52:30;;;;;;;5.18;2.65;;;17.80;99.90;;;;;;5053834;28;20196;-75
2023/07/26 01:55:00;;;;;;;3.13;2.63;;;17.90;99.90;;;;;;5053940;28;20193;-75
2023/07/26 01:57:31;;;;;;;3.97;2.67;;;17.90;99.90;;;;;;5053710;28;20211;-79
2023/07/26 02:00:02;;;;;;;4.55;2.30;;;17.90;99.90;;;;;;5053715;28;20563;-75
2023/07/26 02:02:33;;;;;;;3.80;2.47;;;18.10;99.90;;;;;;5053731;28;20192;-75
2023/07/26 02:05:04;;;;;;;2.33;1.90;;;18.30;99.90;;;;;;5053908;28;20756;-73
2023/07/26 02:07:37;;;;;;;4.43;2.35;;;18.40;99.90;;;;;;5053478;28;20190;-75
2023/07/26 02:10:08;;;;;;;4.25;2.17;;;18.50;99.90;;;;;;5053480;28;20241;-75
2023/07/26 02:12:39;;;;;;;4.97;2.47;;;18.60;99.90;;;;;;5053717;28;20243;-78
2023/07/26 02:15:10;;;;;;;3.58;2.30;;;18.60;99.90;;;;;;5053515;28;20190;-76
2023/07/26 02:17:41;;;;;;;2.95;2.10;;;18.80;99.90;;;;;;5053573;28;20189;-74
2023/07/26 02:20:12;;;;;;;2.42;1.95;;;18.90;99.90;;;;;;5053429;28;20200;-74
2023/07/26 02:22:45;;;;;;;3.03;2.00;;;18.90;99.90;;;;;;5053717;28;20200;-75
2023/07/26 02:25:16;;;;;;;3.35;1.90;;;19.00;99.90;;;;;;5053387;28;20220;-76
2023/07/26 02:27:47;;;;;;;3.15;1.95;;;19.10;99.90;;;;;;5053635;28;20201;-76
2023/07/26 02:30:18;;;;;;;3.90;1.92;;;19.20;99.90;;;;;;5053729;28;20646;-78
2023/07/26 02:32:48;;;;;;;2.00;1.80;;;19.20;99.90;;;;;;5053549;28;20192;-80
2023/07/26 02:35:19;;;;;;;2.15;1.70;;;19.30;99.90;;;;;;5053348;28;20683;-80
2023/07/26 02:37:52;;;;;;;2.35;1.70;;;19.30;99.90;;;;;;5053447;28;20544;-80
2023/07/26 02:40:23;;;;;;;2.67;1.60;;;19.30;99.90;;;;;;5053288;28;20235;-79
2023/07/26 02:42:54;;;;;;;4.43;2.10;;;19.20;99.90;;;;;;5053386;28;20225;-77
2023/07/26 02:45:24;;;;;;;2.78;2.15;;;19.20;99.90;;;;;;5053381;28;20304;-79
2023/07/26 02:47:55;;;;;;;2.58;1.80;;;19.20;99.90;;;;;;5053416;28;20198;-75
2023/07/26 02:50:26;;;;;;;2.75;1.90;;;19.30;99.90;;;;;;5053320;28;20212;-76
2023/07/26 02:52:59;;;;;;;2.55;1.58;;;19.40;99.90;;;;;;5053231;28;20185;-81
2023/07/26 02:55:29;;;;;;;1.88;1.48;;;19.40;99.90;;;;;;5053168;28;20197;-79
2023/07/26 02:58:00;;;;;;;3.83;1.48;;;19.40;99.90;;;;;;5053344;28;20190;-79
2023/07/26 03:00:31;;;;;;;2.03;1.40;;;19.40;99.90;;;;;;5053287;28;20194;-80
2023/07/26 03:03:02;;;;;;;9.30;3.95;;;19.50;99.90;;;;;;5053534;28;20193;-79
2023/07/26 03:05:33;;;;;;;2.75;1.95;;;19.50;99.90;;;;;;5052794;28;20240;-79
2023/07/26 03:08:06;;;;;;;4.45;1.85;;;19.60;99.90;;;;;;5052679;28;20276;-75
2023/07/26 03:10:37;;;;;;;3.42;1.40;;;19.70;99.90;;;;;;5052921;28;20240;-79
2023/07/26 03:13:07;;;;;;;1.63;1.30;;;19.80;99.90;;;;;;5052974;28;20193;-76
2023/07/26 03:15:42;;;;;;;5.30;2.03;;;19.90;99.90;;;;;;5053040;28;20276;-74
2023/07/26 03:18:13;;;;;;;1.55;1.27;;;19.80;99.90;;;;;;5052898;28;20189;-75
2023/07/26 03:20:48;;;;;;;1.50;1.30;;;19.70;99.90;;;;;;5054302;28;20189;-78
2023/07/26 03:23:21;;;;;;;1.98;1.38;;;19.70;99.90;;;;;;5056878;28;20688;-79
2023/07/26 03:25:51;;;;;;;1.95;1.40;;;19.70;99.90;;;;;;5056742;28;20228;-79
2023/07/26 03:28:22;;;;;;;2.70;1.42;;;19.70;99.90;;;;;;5056835;28;20194;-77
2023/07/26 03:30:53;;;;;;;2.97;1.30;;;19.70;99.90;;;;;;5056584;28;20197;-75
2023/07/26 03:33:24;;;;;;;1.10;1.00;;;19.80;99.90;;;;;;5056836;28;20186;-76
2023/07/26 03:35:55;;;;;;;2.33;1.50;;;19.80;99.90;;;;;;5056449;28;20237;-73
2023/07/26 03:38:28;;;;;;;2.03;1.25;;;19.90;99.90;;;;;;5056681;28;20225;-81
2023/07/26 03:41:00;;;;;;;1.52;1.17;;;19.90;99.90;;;;;;5056970;28;20293;-82
2023/07/26 03:43:30;;;;;;;3.72;2.20;;;20.00;99.90;;;;;;5056667;28;20641;-78
2023/07/26 03:46:01;;;;;;;3.42;1.67;;;20.00;99.90;;;;;;5056283;28;20221;-77
2023/07/26 03:48:32;;;;;;;2.67;1.50;;;20.00;99.90;;;;;;5056174;28;20190;-77
2023/07/26 03:51:03;;;;;;;2.05;1.33;;;20.10;99.90;;;;;;5056365;28;20280;-81
2023/07/26 03:53:36;;;;;;;3.25;2.03;;;20.10;99.90;;;;;;5056677;28;20189;-81
2023/07/26 03:56:06;;;;;;;2.50;1.30;;;20.10;99.90;;;;;;5056298;28;20262;-77
2023/07/26 03:58:37;;;;;;;3.13;1.27;;;20.00;99.90;;;;;;5056208;28;20614;-79
2023/07/26 04:01:08;;;;;;;1.77;1.52;;;20.00;99.90;;;;;;5056212;28;20633;-76
2023/07/26 04:03:39;;;;;;;1.67;1.20;;;20.00;99.90;;;;;;5056196;28;20276;-87
2023/07/26 04:06:14;;;;;;;1.33;1.23;;;20.10;99.90;;;;;;5055947;28;20217;-84
2023/07/26 04:08:47;;;;;;;2.17;1.00;;;20.10;99.90;;;;;;5055757;28;20696;-75
2023/07/26 04:11:18;;;;;;;1.67;1.20;;;20.20;99.90;;;;;;5056006;28;20576;-82
2023/07/26 04:13:49;;;;;;;2.45;1.23;;;20.20;99.90;;;;;;5055952;28;20194;-77
2023/07/26 04:16:20;;;;;;;2.40;1.40;;;20.10;99.90;;;;;;5056055;28;20567;-81
2023/07/26 04:18:52;;;;;;;1.80;1.20;;;20.10;99.90;;;;;;5056028;28;20704;-79
2023/07/26 04:21:23;;;;;;;3.58;1.05;;;20.00;99.90;;;;;;5056131;28;20186;-82
2023/07/26 04:23:55;;;;;;;2.05;0.90;;;20.10;99.90;;;;;;5056133;28;20194;-79
2023/07/26 04:26:26;;;;;;;2.80;1.10;;;20.00;99.90;;;;;;5056002;28;20583;-82
2023/07/26 04:28:57;;;;;;;2.20;1.05;;;20.00;99.90;;;;;;5055574;28;20732;-82
2023/07/26 04:31:28;;;;;;;3.38;0.93;;;20.00;99.90;;;;;;5055414;28;20753;-82
2023/07/26 04:33:59;;;;;;;1.00;1.00;;;20.00;99.90;;;;;;5055547;28;20196;-75
2023/07/26 04:36:30;;;;;;;2.42;1.10;;;20.00;99.90;;;;;;5055566;28;20196;-81
2023/07/26 04:39:03;;;;;;;1.63;0.93;;;20.00;99.90;;;;;;5055511;28;20243;-77
2023/07/26 04:41:33;;;;;;;2.85;0.90;;;20.00;99.90;;;;;;5055510;28;20194;-80
2023/07/26 04:44:04;;;;;;;1.23;1.00;;;20.10;99.90;;;;;;5055607;28;20556;-75
2023/07/26 04:46:35;;;;;;;1.67;1.10;;;20.10;99.90;;;;;;5055154;28;20221;-77
2023/07/26 04:49:06;;;;;;;2.85;0.90;;;20.10;99.90;;;;;;5055337;28;20664;-81
2023/07/26 04:51:37;;;;;;;1.42;0.90;;;20.10;99.90;;;;;;5055290;28;20196;-79
2023/07/26 04:54:09;;;;;;;1.10;1.00;;;20.10;99.90;;;;;;5055334;28;20639;-78
2023/07/26 04:56:40;;;;;;;1.50;1.00;;;20.10;99.90;;;;;;5055160;28;20197;-75
2023/07/26 04:59:11;;;;;;;3.08;0.95;;;20.10;99.90;;;;;;5055013;28;20190;-76
2023/07/26 05:01:42;;;;;;;1.50;1.10;;;20.10;99.90;;;;;;5054994;28;20190;-83
2023/07/26 05:04:13;;;;;;;3.53;1.30;;;20.10;99.90;;;;;;5054922;28;20201;-80
2023/07/26 05:06:43;;;;;;;1.63;1.00;;;20.10;99.90;;;;;;5054978;28;20305;-74
2023/07/26 05:09:16;;;;;;;1.92;1.27;;;20.10;99.90;;;;;;5054680;28;20239;-75
2023/07/26 05:11:47;;;;;;;2.22;1.02;;;20.10;99.90;;;;;;5054951;28;20663;-81
2023/07/26 05:14:20;;;;;;;2.28;1.15;;;20.00;99.90;;;;;;5055001;28;20196;-75
2023/07/26 05:16:51;;;;;;;1.05;0.90;;;20.00;99.90;;;;;;5054601;28;20228;-75
2023/07/26 05:19:22;;;;;;;2.35;0.90;;;20.00;99.90;;;;;;5055019;28;20204;-75
2023/07/26 05:21:52;;;;;;;1.83;1.00;;;20.00;99.90;;;;;;5054826;28;20198;-78
2023/07/26 05:24:25;;;;;;;1.02;0.80;;;20.00;99.90;;;;;;5054768;28;20194;-76
2023/07/26 05:26:58;;;;;;;2.10;0.90;;;20.00;99.90;;;;;;5054629;28;20221;-75
2023/07/26 05:29:28;;;;;;;1.25;1.00;;;20.00;99.90;;;;;;5054506;28;20215;-81
2023/07/26 05:31:59;;;;;;;1.08;0.98;;;20.00;99.90;;;;;;5054382;28;20186;-75
2023/07/26 05:34:30;;;;;;;1.77;1.10;;;19.90;99.90;;;;;;5054747;28;20186;-76
2023/07/26 05:37:04;;;;;;;1.40;0.93;;;19.90;99.90;;;;;;5054171;28;20575;-76
2023/07/26 05:39:37;;;;;;;1.58;1.15;;;19.80;99.90;;;;;;5054221;28;20308;-80
2023/07/26 05:42:08;;;;;;;1.30;1.00;;;19.80;99.90;;;;;;5054443;28;20255;-81
2023/07/26 05:44:39;;;;;;;1.08;0.98;;;19.80;99.90;;;;;;5053451;28;20198;-74
2023/07/26 05:47:10;;;;;;;3.20;1.15;;;19.70;99.90;;;;;;5054232;28;20247;-81
2023/07/26 05:49:44;;;;;;;2.42;1.10;;;19.70;99.90;;;;;;5054000;28;20555;-76
2023/07/26 05:52:16;;;;;;;2.00;1.17;;;19.60;99.90;;;;;;5053992;28;20607;-79
2023/07/26 05:54:49;;;;;;;1.52;1.02;;;19.50;99.90;;;;;;5054346;28;20268;-81
2023/07/26 05:57:20;;;;;;;1.92;0.93;;;19.50;99.90;;;;;;5053921;28;20650;-81
2023/07/26 05:59:51;;;;;;;1.88;1.05;;;19.50;99.90;;;;;;5053735;28;20709;-75
2023/07/26 06:02:22;;;;;;;3.15;1.20;;;19.50;99.90;;;;;;5053976;28;20642;-79
2023/07/26 06:04:53;;;;;;;0.70;0.70;;;19.50;99.90;;;;;;5054314;28;20704;-76
2023/07/26 06:07:24;;;;;;;1.45;0.90;;;19.50;99.90;;;;;;5053759;28;20256;-80
2023/07/26 06:09:56;;;;;;;2.97;0.90;;;19.40;99.90;;;;;;5053637;28;20332;-75
2023/07/26 06:12:27;;;;;;;1.42;0.90;;;19.40;99.90;;;;;;5053947;28;20664;-78
2023/07/26 06:14:58;;;;;;;1.70;1.00;;;19.30;99.90;;;;;;5053377;28;20190;-75
2023/07/26 06:17:29;;;;;;;0.82;0.82;;;19.30;99.90;;;;;;5053823;28;20229;-80
2023/07/26 06:20:00;;;;;;;2.35;0.88;;;19.30;99.90;;;;;;5053671;28;20631;-74
2023/07/26 06:22:31;;;;;;;0.98;0.80;;;19.20;99.90;;;;;;5053729;28;20276;-79
2023/07/26 06:25:04;;;;;;;2.05;0.90;;;19.20;99.90;;;;;;5053510;28;20193;-78
2023/07/26 06:27:35;;;;;;;1.35;0.90;;;19.20;99.90;;;;;;5053649;28;20256;-75
2023/07/26 06:30:06;;;;;;;2.35;1.10;;;19.10;99.90;;;;;;5053474;28;20204;-80
2023/07/26 06:32:36;;;;;;;3.95;1.35;;;19.00;99.90;;;;;;5053787;28;20194;-79
2023/07/26 06:35:08;;;;;;;3.55;1.30;;;19.00;99.90;;;;;;5053374;28;20196;-74
2023/07/26 06:37:39;;;;;;;3.97;1.23;;;19.00;99.90;;;;;;5053681;28;20197;-79
2023/07/26 06:40:13;;;;;;;2.75;1.10;;;18.90;99.90;;;;;;5053029;28;20267;-78
2023/07/26 06:42:44;;;;;;;1.90;1.30;;;18.80;99.90;;;;;;5053264;28;20195;-79
2023/07/26 06:45:15;;;;;;;4.57;1.25;;;18.70;99.90;;;;;;5053341;28;20194;-77
2023/07/26 06:47:45;;;;;;;4.93;1.30;;;18.70;99.90;;;;;;5053201;28;20218;-78
2023/07/26 06:50:16;;;;;;;2.75;1.67;;;18.60;99.90;;;;;;5053358;28;20210;-74
2023/07/26 06:52:48;;;;;;;3.08;1.80;;;18.40;99.90;;;;;;5053267;28;20730;-72
2023/07/26 06:55:21;;;;;;;2.28;1.40;;;18.30;99.90;;;;;;5052218;28;20531;-77
2023/07/26 06:57:54;;;;;;;2.85;1.80;;;18.20;99.90;;;;;;5052910;28;20196;-80
2023/07/26 07:00:25;;;;;;;4.82;2.42;;;18.00;99.90;;;;;;5053021;28;20605;-77
2023/07/26 07:02:58;;;;;;;5.15;2.40;;;17.90;99.90;;;;;;5053146;28;20194;-78
2023/07/26 07:05:31;;;;;;;4.35;2.53;;;17.70;99.90;;;;;;5053132;28;20197;-79
2023/07/26 07:08:02;;;;;;;8.07;4.00;;;17.60;99.90;;;;;;5053003;28;20673;-76
2023/07/26 07:10:35;;;;;;;7.45;4.28;;;17.40;99.90;;;;;;5053015;28;20272;-75
2023/07/26 07:13:06;;;;;;;8.88;4.45;;;17.30;99.90;;;;;;5052980;28;20191;-75
2023/07/26 07:15:37;;;;;;;7.78;3.28;;;17.20;99.90;;;;;;5053052;28;20190;-79
2023/07/26 07:18:07;;;;;;;6.30;3.25;;;17.00;99.90;;;;;;5052809;28;20201;-79
2023/07/26 07:20:38;;;;;;;5.95;2.95;;;16.90;99.90;;;;;;5052823;28;20194;-78
2023/07/26 07:23:09;;;;;;;7.65;2.70;;;16.80;99.90;;;;;;5052869;28;20236;-78
2023/07/26 07:25:43;;;;;;;4.00;2.30;;;16.80;99.90;;;;;;5052938;28;20193;-80
2023/07/26 07:28:14;;;;;;;3.92;2.20;;;16.70;99.90;;;;;;5052440;28;20228;-80
2023/07/26 07:30:45;;;;;;;4.32;1.90;;;16.70;99.90;;;;;;5053066;28;20205;-78
2023/07/26 07:33:16;;;;;;;3.95;2.03;;;16.60;99.90;;;;;;5052868;28;20190;-78
2023/07/26 07:35:46;;;;;;;4.35;2.55;;;16.60;99.90;;;;;;5052736;28;20360;-77
2023/07/26 07:38:18;;;;;;;7.78;3.58;;;16.50;99.90;;;;;;5052775;28;20196;-75
2023/07/26 07:40:50;;;;;;;6.63;3.42;;;16.50;99.90;;;;;;5052636;28;20779;-77
2023/07/26 07:43:21;;;;;;;4.05;2.35;;;16.40;99.90;;;;;;5052861;28;20660;-80
2023/07/26 07:45:52;;;;;;;4.07;2.22;;;16.30;99.90;;;;;;5052805;28;20190;-79
2023/07/26 07:48:23;;;;;;;6.65;3.40;;;16.20;99.90;;;;;;5052675;28;20621;-80
2023/07/26 07:50:57;;;;;;;4.90;3.03;;;16.10;99.90;;;;;;5052614;28;20193;-79
2023/07/26 07:53:28;;;;;;;4.47;2.40;;;16.00;99.90;;;;;;5052768;28;20558;-79
2023/07/26 07:56:01;;;;;;;5.13;2.70;;;15.90;99.90;;;;;;5052348;28;20193;-76
2023/07/26 07:58:32;;;;;;;3.67;2.50;;;15.80;99.90;;;;;;5052594;28;20220;-78
2023/07/26 08:01:03;;;;;;;4.90;2.40;;;15.70;99.90;;;;;;5052490;28;20680;-74
2023/07/26 08:03:34;;;;;;;3.60;2.33;;;15.60;99.90;;;;;;5052370;28;20281;-76
2023/07/26 08:06:05;;;;;;;5.75;2.40;;;15.50;99.90;;;;;;5053010;28;20196;-75
2023/07/26 08:08:35;;;;;;;3.92;2.35;;;15.50;99.90;;;;;;5055831;28;20751;-77
2023/07/26 08:11:08;;;;;;;6.47;2.22;;;15.40;99.90;;;;;;5056069;28;20193;-76
2023/07/26 08:13:39;;;;;;;3.90;2.20;;;15.40;99.90;;;;;;5056178;28;20196;-74
2023/07/26 08:16:10;;;;;;;3.40;2.17;;;15.30;99.90;;;;;;5056030;28;20194;-74
2023/07/26 08:18:41;;;;;;;3.75;2.20;;;15.30;99.90;;;;;;5055903;28;20203;-74
2023/07/26 08:21:14;;;;;;;3.60;2.40;;;15.30;99.90;;;;;;5055981;28;20194;-76
2023/07/26 08:23:45;;;;;;;5.93;2.50;;;15.20;99.90;;;;;;5055848;28;20197;-75
2023/07/26 08:26:18;;;;;;;4.05;2.10;;;15.10;99.90;;;;;;5055715;28;20190;-73
2023/07/26 08:28:50;;;;;;;6.93;2.67;;;15.00;99.90;;;;;;5055678;28;20309;-78
2023/07/26 08:31:21;;;;;;;4.35;2.40;;;15.00;99.90;;;;;;5055716;28;20194;-75
2023/07/26 08:33:52;;;;;;;6.72;2.95;;;15.00;99.90;;;;;;5055515;28;20186;-76
2023/07/26 08:36:23;;;;;;;5.18;2.45;;;14.90;99.90;;;;;;5055422;28;20186;-78
2023/07/26 08:38:53;;;;;;;4.53;2.30;;;14.90;99.90;;;;;;5055286;28;20590;-74
2023/07/26 08:41:27;;;;;;;5.88;2.53;;;14.90;99.90;;;;;;5055488;28;20200;-77
2023/07/26 08:44:00;;;;;;;4.35;2.30;;;14.80;99.90;;;;;;5055938;28;20224;-79
2023/07/26 08:46:32;;;;;;;5.50;2.80;;;14.80;99.90;;;;;;5055468;28;20676;-74
2023/07/26 08:49:04;;;;;;;6.68;2.83;;;14.70;99.90;;;;;;5059426;28;20572;-74
2023/07/26 08:51:35;;;;;;;4.20;2.72;;;14.60;99.90;;;;;;5075060;28;20309;-74
2023/07/26 08:54:06;;;;;;;3.60;3.03;;;14.60;99.90;;;;;;5054861;28;20197;-77
2023/07/26 08:56:38;;;;;;;3.47;2.80;;;14.50;99.90;;;;;;5055269;28;20185;-76
2023/07/26 08:59:10;;;;;;;5.20;2.90;;;14.50;99.90;;;;;;5055161;28;20197;-75
2023/07/26 09:01:42;;;;;;;3.63;2.60;;;14.40;99.90;;;;;;5055198;28;20197;-75
2023/07/26 09:04:14;;;;;;;5.45;3.03;;;14.40;99.90;;;;;;5055079;28;20201;-78
2023/07/26 09:06:45;;;;;;;5.88;3.00;;;14.40;99.90;;;;;;5052363;28;20546;-78
2023/07/26 09:09:16;;;;;;;5.60;2.92;;;14.40;99.90;;;;;;5072365;28;20233;-78
2023/07/26 09:11:54;;;;;;;7.53;3.25;;;14.40;99.90;;;;;;5074983;28;20243;-78
2023/07/26 09:14:28;;;;;;;4.40;2.63;;;14.30;99.90;;;;;;5070319;28;20196;-78
2023/07/26 09:17:00;;;;;;;6.40;3.28;;;14.30;99.90;;;;;;5055025;28;20189;-74
2023/07/26 09:19:36;;;;;;;5.55;3.72;;;14.20;99.90;;;;;;5053941;28;20198;-78
2023/07/26 09:22:10;;;;;;;4.65;3.33;;;14.10;99.90;;;;;;5067230;28;20223;-76
2023/07/26 09:24:41;;;;;;;7.43;3.78;;;14.00;99.90;;;;;;5073540;28;20196;-78
2023/07/26 09:27:15;;;;;;;5.88;3.42;;;14.00;99.90;;;;;;5074714;28;20193;-77
2023/07/26 09:29:55;;;;;;;4.88;3.65;;;13.90;99.90;;;;;;5074528;28;20184;-75
2023/07/26 09:32:35;;;;;;;5.70;3.28;;;13.90;99.90;;;;;;5064438;28;20207;-75
2023/07/26 09:35:08;;;;;;;4.25;3.25;;;13.90;99.90;;;;;;5054918;28;20201;-77
2023/07/26 09:37:40;;;;;;;7.28;4.80;;;13.90;99.90;;;;;;5054635;28;20212;-78
2023/07/26 09:40:11;;;;;;;7.75;4.22;;;13.80;99.90;;;;;;5073395;28;20236;-77
2023/07/26 09:42:51;;;;;;;6.22;3.85;;;13.70;99.90;;;;;;5067056;28;20203;-77
2023/07/26 09:45:22;;;;;;;5.72;3.75;;;13.70;99.90;;;;;;5072314;28;20276;-75
2023/07/26 09:47:53;;;;;;;8.25;4.30;;;13.60;99.90;;;;;;5072507;28;20211;-77
2023/07/26 09:50:31;;;;;;;4.53;3.67;;;13.60;99.90;;;;;;5074098;28;20219;-76
2023/07/26 09:53:03;;;;;;;5.97;3.90;;;13.60;99.90;;;;;;5073493;28;20207;-75
2023/07/26 09:55:34;;;;;;;8.00;4.30;;;13.60;99.90;;;;;;5067128;28;20200;-75
2023/07/26 09:58:07;;;;;;;5.85;4.20;;;13.50;99.90;;;;;;5065775;28;20664;-77
2023/07/26 10:00:38;;;;;;;6.07;3.95;;;13.50;99.90;;;;;;5069999;28;20211;-75
2023/07/26 10:03:10;;;;;;;5.85;4.00;;;13.50;99.90;;;;;;5061997;28;20203;-77
2023/07/26 10:05:44;;;;;;;6.00;4.15;;;13.50;99.90;;;;;;5072962;28;20201;-77
2023/07/26 10:08:16;;;;;;;7.00;4.10;;;13.40;99.90;;;;;;5073147;28;20216;-74
2023/07/26 10:10:49;;;;;;;7.38;4.10;;;13.40;99.90;;;;;;5061992;28;20197;-75
2023/07/26 10:13:23;;;;;;;6.50;4.18;;;13.40;99.90;;;;;;5072295;28;20288;-77
2023/07/26 10:15:54;;;;;;;9.13;4.63;;;13.40;99.90;;;;;;5069922;28;20281;-74
2023/07/26 10:18:27;;;;;;;10.07;5.13;;;13.40;99.90;;;;;;5071948;28;20189;-77
2023/07/26 10:21:00;;;;;;;9.95;5.65;;;13.40;99.90;;;;;;5073111;28;20192;-74
2023/07/26 10:23:32;;;;;;;10.63;5.20;;;13.40;99.90;;;;;;5073818;28;20232;-76
2023/07/26 10:26:06;;;;;;;8.95;5.20;;;13.40;99.90;;;;;;5073608;28;20648;-77
2023/07/26 10:28:39;;;;;;;10.60;5.20;;;13.30;99.90;;;;;;5072744;28;20683;-77
2023/07/26 10:31:10;;;;;;;10.65;5.13;;;13.30;99.90;;;;;;5073394;28;20200;-76
2023/07/26 10:33:47;;;;;;;7.85;5.13;;;13.30;99.90;;;;;;5073343;28;20285;-76
2023/07/26 10:36:18;;;;;;;8.85;4.55;;;13.30;99.90;;;;;;5072750;28;20193;-74
2023/07/26 10:38:51;;;;;;;10.02;5.65;;;13.20;99.90;;;;;;5072808;28;20216;-74
2023/07/26 10:41:26;;;;;;;10.93;5.50;;;13.20;99.90;;;;;;5073104;28;20565;-77
2023/07/26 10:44:09;;;;;;;9.02;5.20;;;13.00;99.90;;;;;;5072937;28;20203;-77
2023/07/26 10:46:54;;;;;;;9.00;5.18;;;13.00;99.90;;;;;;5062135;28;20200;-74
2023/07/26 10:49:28;;;;;;;8.88;5.40;;;12.90;99.90;;;;;;5072775;28;20306;-74
2023/07/26 10:52:02;;;;;;;10.15;5.65;;;12.80;99.90;;;;;;5073288;28;20211;-74
2023/07/26 10:54:41;;;;;;;8.75;5.63;;;12.80;99.90;;;;;;5073197;28;20243;-74
2023/07/26 10:57:24;;;;;;;9.52;5.50;;;12.80;99.90;;;;;;5072960;28;20201;-75
2023/07/26 10:59:59;;;;;;;7.03;4.78;;;12.70;99.90;;;;;;5072851;28;20197;-74
2023/07/26 11:02:43;;;;;;;10.82;6.57;;;12.70;99.90;;;;;;5072827;28;20202;-74
2023/07/26 11:05:18;;;;;;;11.32;6.53;;;12.60;99.90;;;;;;5072730;28;20203;-77
2023/07/26 11:08:09;;;;;;;10.88;6.50;;;12.60;99.90;;;;;;5072657;28;20695;-75
2023/07/26 11:10:41;;;;;;;11.60;6.45;;;12.60;99.90;;;;;;5059337;28;20240;-76
2023/07/26 11:13:14;;;;;;;11.05;7.07;;;12.50;99.90;;;;;;5073089;28;20196;-77
2023/07/26 11:15:47;;;;;;;12.43;7.40;;;12.60;99.90;;;;;;5072681;28;20203;-74
2023/07/26 11:18:22;;;;;;;11.05;6.60;;;12.50;99.90;;;;;;5072316;28;20211;-74
2023/07/26 11:20:53;;;;;;;11.73;6.97;;;12.50;99.90;;;;;;5072739;28;20281;-77
2023/07/26 11:23:25;;;;;;;12.57;6.65;;;12.50;99.90;;;;;;5072775;28;20196;-77
2023/07/26 11:25:57;;;;;;;11.95;6.70;;;12.50;99.90;;;;;;5072837;28;20234;-77
2023/07/26 11:28:32;;;;;;;11.80;6.38;;;12.50;99.90;;;;;;5072281;28;20220;-77
2023/07/26 11:31:06;;;;;;;10.88;6.28;;;12.60;99.90;;;;;;5072621;28;20250;-77
2023/07/26 11:33:38;;;;;;;9.73;5.88;;;12.60;99.90;;;;;;5072623;28;20200;-77
2023/07/26 11:36:20;;;;;;;10.30;5.95;;;12.60;99.90;;;;;;5072482;28;20624;-77
2023/07/26 11:38:51;;;;;;;9.90;5.50;;;12.60;99.90;;;;;;5072341;28;20303;-76
2023/07/26 11:41:22;;;;;;;11.63;6.03;;;12.60;99.90;;;;;;5072533;28;20196;-76
2023/07/26 11:43:54;;;;;;;9.20;5.70;;;12.60;99.90;;;;;;5065724;28;20194;-76
2023/07/26 11:46:32;;;;;;;9.20;5.32;;;12.60;99.90;;;;;;5058221;28;20254;-77
2023/07/26 11:49:02;;;;;;;9.05;5.07;;;12.60;99.90;;;;;;5072412;28;20337;-75
2023/07/26 11:51:35;;;;;;;7.30;5.15;;;12.50;99.90;;;;;;5076273;28;20541;-74
2023/07/26 11:54:09;;;;;;;10.20;5.13;;;12.50;99.90;;;;;;5065587;28;20189;-77
2023/07/26 11:56:40;;;;;;;10.02;5.38;;;12.40;99.90;;;;;;5076256;28;20553;-74
2023/07/26 11:59:12;;;;;;;7.38;4.78;;;12.40;99.90;;;;;;5066301;28;20539;-76
2023/07/26 12:01:45;;;;;;;9.10;5.72;;;12.40;99.90;;;;;;5060100;28;20293;-77
2023/07/26 12:04:17;;;;;;;7.63;5.35;;;12.40;99.90;;;;;;5061508;28;20222;-75
2023/07/26 12:06:48;;;;;;;9.63;5.30;;;12.30;99.90;;;;;;5063420;28;20223;-76
2023/07/26 12:09:19;;;;;;;9.63;5.03;;;12.30;99.90;;;;;;5064430;28;20233;-75
2023/07/26 12:11:53;;;;;;;11.18;6.05;;;12.30;99.90;;;;;;5075412;28;20581;-78
2023/07/26 12:14:24;;;;;;;11.30;6.30;;;12.20;99.90;;;;;;5073493;28;20193;-77
2023/07/26 12:16:57;;;;;;;10.52;6.03;;;12.20;99.90;;;;;;5075469;28;20664;-75
2023/07/26 12:19:28;;;;;;;10.82;6.43;;;12.10;99.90;;;;;;5063679;28;20224;-77
2023/07/26 12:22:01;;;;;;;11.23;6.10;;;12.10;99.90;;;;;;5073770;28;20189;-76
2023/07/26 12:24:32;;;;;;;10.38;7.07;;;12.00;99.90;;;;;;5065805;28;20211;-77
2023/07/26 12:27:05;;;;;;;12.40;6.55;;;12.00;99.90;;;;;;5061879;28;20640;-75
2023/07/26 12:29:38;;;;;;;10.90;6.35;;;12.00;99.90;;;;;;5059165;28;20312;-74
2023/07/26 12:32:14;;;;;;;10.82;6.78;;;11.90;99.90;;;;;;5064583;28;20618;-74
2023/07/26 12:34:44;;;;;;;10.63;6.47;;;12.00;99.90;;;;;;5062474;28;20224;-74
2023/07/26 12:37:15;;;;;;;11.73;7.30;;;11.90;99.90;;;;;;5073520;28;20200;-74
2023/07/26 12:39:48;;;;;;;9.88;6.53;;;11.90;99.90;;;;;;5066341;28;20699;-73
2023/07/26 12:42:19;;;;;;;13.38;6.50;;;11.90;99.90;;;;;;5074740;28;20286;-76
2023/07/26 12:44:49;;;;;;;9.25;5.45;;;11.90;99.90;;;;;;5062484;28;20196;-77
2023/07/26 12:47:22;;;;;;;10.50;6.22;;;11.90;99.90;;;;;;5070246;28;20197;-75
2023/07/26 12:49:53;;;;;;;10.40;6.65;;;11.90;99.90;;;;;;5065253;28;20263;-77
2023/07/26 12:52:24;;;;;;;12.60;6.40;;;11.80;99.90;;;;;;5067197;28;20322;-77
2023/07/26 12:54:54;;;;;;;10.45;6.20;;;11.80;99.90;;;;;;5073871;28;20204;-78
2023/07/26 12:57:25;;;;;;;11.80;6.65;;;11.80;99.90;;;;;;5071525;28;20192;-77
2023/07/26 12:59:56;;;;;;;9.18;6.28;;;11.70;99.90;;;;;;5069618;28;20292;-76
2023/07/26 13:02:29;;;;;;;13.88;7.15;;;11.80;99.90;;;;;;5068345;28;20197;-77
2023/07/26 13:05:00;;;;;;;12.52;7.30;;;11.70;99.90;;;;;;5072285;28;20223;-77
2023/07/26 13:07:30;;;;;;;15.05;8.18;;;11.70;99.90;;;;;;5074742;28;20664;-77
2023/07/26 13:10:03;;;;;;;13.13;7.43;;;11.60;99.90;;;;;;5070302;28;20331;-76